RJCH(METAR)
05/26 18:00
METAR RJCH 260900Z 13007KT 9999 FEW040 BKN/// 14/11 Q1006 RMK 1CU040
A2973=
戻る
トップページへ戻る
IMOC Co,.Ltd.